sensor_id;sensor_type;location;lat;lon;timestamp;pressure;altitude;pressure_sealevel;temperature;humidity
6514;BME280;3290;47.716;9.070;2023-12-07T00:01:10;97272.19;;;4.94;100.00
6514;BME280;3290;47.716;9.070;2023-12-07T00:03:35;97276.09;;;4.90;100.00
6514;BME280;3290;47.716;9.070;2023-12-07T00:06:01;97276.75;;;4.92;100.00
6514;BME280;3290;47.716;9.070;2023-12-07T00:08:26;97279.25;;;5.08;100.00
6514;BME280;3290;47.716;9.070;2023-12-07T00:10:51;97289.50;;;5.01;100.00
6514;BME280;3290;47.716;9.070;2023-12-07T00:13:17;97282.63;;;4.86;100.00
6514;BME280;3290;47.716;9.070;2023-12-07T00:15:42;97284.50;;;4.70;100.00
6514;BME280;3290;47.716;9.070;2023-12-07T00:18:07;97283.75;;;4.53;100.00
6514;BME280;3290;47.716;9.070;2023-12-07T00:20:33;97278.81;;;4.66;100.00
6514;BME280;3290;47.716;9.070;2023-12-07T00:22:58;97280.66;;;4.58;100.00
6514;BME280;3290;47.716;9.070;2023-12-07T00:25:23;97276.25;;;4.58;100.00
6514;BME280;3290;47.716;9.070;2023-12-07T00:27:49;97291.72;;;4.52;100.00
6514;BME280;3290;47.716;9.070;2023-12-07T00:30:14;97289.44;;;4.57;100.00
6514;BME280;3290;47.716;9.070;2023-12-07T00:32:40;97287.00;;;4.55;100.00
6514;BME280;3290;47.716;9.070;2023-12-07T00:35:09;97288.69;;;4.33;100.00
6514;BME280;3290;47.716;9.070;2023-12-07T00:37:34;97295.00;;;4.38;100.00
6514;BME280;3290;47.716;9.070;2023-12-07T00:40:00;97294.19;;;4.38;100.00
6514;BME280;3290;47.716;9.070;2023-12-07T00:42:26;97287.69;;;4.41;100.00
6514;BME280;3290;47.716;9.070;2023-12-07T00:44:51;97286.56;;;4.36;100.00
6514;BME280;3290;47.716;9.070;2023-12-07T00:47:16;97287.38;;;4.29;100.00
6514;BME280;3290;47.716;9.070;2023-12-07T00:49:42;97285.63;;;4.29;100.00
6514;BME280;3290;47.716;9.070;2023-12-07T00:52:08;97277.47;;;4.40;100.00
6514;BME280;3290;47.716;9.070;2023-12-07T00:54:33;97279.38;;;4.54;100.00
6514;BME280;3290;47.716;9.070;2023-12-07T00:56:59;97272.06;;;4.57;100.00
6514;BME280;3290;47.716;9.070;2023-12-07T00:59:24;97278.28;;;4.40;100.00
6514;BME280;3290;47.716;9.070;2023-12-07T01:01:50;97275.25;;;4.67;100.00
6514;BME280;3290;47.716;9.070;2023-12-07T01:04:15;97273.38;;;4.53;100.00
6514;BME280;3290;47.716;9.070;2023-12-07T01:06:41;97275.25;;;4.67;100.00
6514;BME280;3290;47.716;9.070;2023-12-07T01:09:08;97278.50;;;4.69;100.00
6514;BME280;3290;47.716;9.070;2023-12-07T01:11:38;97282.44;;;4.87;100.00
6514;BME280;3290;47.716;9.070;2023-12-07T01:14:04;97285.69;;;4.89;100.00
6514;BME280;3290;47.716;9.070;2023-12-07T01:16:30;97289.22;;;4.96;100.00
6514;BME280;3290;47.716;9.070;2023-12-07T01:18:55;97292.59;;;4.97;100.00
6514;BME280;3290;47.716;9.070;2023-12-07T01:21:21;97294.25;;;4.90;100.00
6514;BME280;3290;47.716;9.070;2023-12-07T01:23:46;97293.28;;;4.91;100.00
6514;BME280;3290;47.716;9.070;2023-12-07T01:26:11;97307.13;;;4.83;100.00
6514;BME280;3290;47.716;9.070;2023-12-07T01:28:37;97303.69;;;4.91;100.00
6514;BME280;3290;47.716;9.070;2023-12-07T01:31:02;97298.03;;;4.87;100.00
6514;BME280;3290;47.716;9.070;2023-12-07T01:33:27;97308.16;;;5.05;100.00
6514;BME280;3290;47.716;9.070;2023-12-07T01:35:53;97313.91;;;4.92;100.00
6514;BME280;3290;47.716;9.070;2023-12-07T01:38:18;97312.50;;;4.74;100.00
6514;BME280;3290;47.716;9.070;2023-12-07T01:40:44;97313.41;;;4.59;100.00
6514;BME280;3290;47.716;9.070;2023-12-07T01:43:09;97311.91;;;4.64;100.00
6514;BME280;3290;47.716;9.070;2023-12-07T01:45:35;97311.13;;;4.56;100.00
6514;BME280;3290;47.716;9.070;2023-12-07T01:48:00;97324.09;;;4.64;100.00
6514;BME280;3290;47.716;9.070;2023-12-07T01:50:26;97319.88;;;4.63;100.00
6514;BME280;3290;47.716;9.070;2023-12-07T01:53:00;97320.00;;;4.69;100.00
6514;BME280;3290;47.716;9.070;2023-12-07T01:55:27;97316.81;;;4.59;100.00
6514;BME280;3290;47.716;9.070;2023-12-07T01:57:54;97318.44;;;4.52;100.00
6514;BME280;3290;47.716;9.070;2023-12-07T02:00:20;97318.06;;;4.71;100.00
6514;BME280;3290;47.716;9.070;2023-12-07T02:02:46;97323.25;;;4.63;100.00
6514;BME280;3290;47.716;9.070;2023-12-07T02:05:12;97324.94;;;4.48;100.00
6514;BME280;3290;47.716;9.070;2023-12-07T02:07:40;97322.06;;;4.36;100.00
6514;BME280;3290;47.716;9.070;2023-12-07T02:10:06;97328.03;;;4.44;100.00
6514;BME280;3290;47.716;9.070;2023-12-07T02:12:32;97327.59;;;4.33;100.00
6514;BME280;3290;47.716;9.070;2023-12-07T02:15:00;97328.19;;;4.42;100.00
6514;BME280;3290;47.716;9.070;2023-12-07T02:17:42;97330.63;;;4.44;100.00
6514;BME280;3290;47.716;9.070;2023-12-07T02:20:28;97323.53;;;4.38;100.00
6514;BME280;3290;47.716;9.070;2023-12-07T02:23:01;97323.31;;;4.47;100.00
6514;BME280;3290;47.716;9.070;2023-12-07T02:25:33;97320.41;;;4.50;100.00
6514;BME280;3290;47.716;9.070;2023-12-07T02:28:00;97316.00;;;4.51;100.00
6514;BME280;3290;47.716;9.070;2023-12-07T02:30:26;97312.47;;;4.52;100.00
6514;BME280;3290;47.716;9.070;2023-12-07T02:32:51;97319.44;;;4.43;100.00
6514;BME280;3290;47.716;9.070;2023-12-07T02:35:16;97318.50;;;4.37;100.00
6514;BME280;3290;47.716;9.070;2023-12-07T02:37:48;97312.34;;;4.30;100.00
6514;BME280;3290;47.716;9.070;2023-12-07T02:40:24;97319.34;;;4.21;100.00
6514;BME280;3290;47.716;9.070;2023-12-07T02:42:51;97319.50;;;4.28;100.00
6514;BME280;3290;47.716;9.070;2023-12-07T02:45:17;97320.97;;;4.22;100.00
6514;BME280;3290;47.716;9.070;2023-12-07T02:47:43;97318.88;;;4.02;100.00
6514;BME280;3290;47.716;9.070;2023-12-07T02:50:11;97325.34;;;4.06;100.00
6514;BME280;3290;47.716;9.070;2023-12-07T02:52:36;97315.63;;;4.16;100.00
6514;BME280;3290;47.716;9.070;2023-12-07T02:55:02;97323.09;;;4.19;100.00
6514;BME280;3290;47.716;9.070;2023-12-07T02:57:28;97314.00;;;4.23;100.00
6514;BME280;3290;47.716;9.070;2023-12-07T02:59:54;97323.69;;;4.29;100.00
6514;BME280;3290;47.716;9.070;2023-12-07T03:02:20;97318.69;;;4.27;100.00
6514;BME280;3290;47.716;9.070;2023-12-07T03:04:45;97326.97;;;4.23;100.00
6514;BME280;3290;47.716;9.070;2023-12-07T03:07:11;97324.22;;;4.24;100.00
6514;BME280;3290;47.716;9.070;2023-12-07T03:09:36;97323.41;;;4.24;100.00
6514;BME280;3290;47.716;9.070;2023-12-07T03:12:01;97326.69;;;3.94;100.00
6514;BME280;3290;47.716;9.070;2023-12-07T03:14:27;97323.78;;;3.89;100.00
6514;BME280;3290;47.716;9.070;2023-12-07T03:16:52;97329.13;;;3.88;100.00
6514;BME280;3290;47.716;9.070;2023-12-07T03:19:18;97330.91;;;3.87;100.00
6514;BME280;3290;47.716;9.070;2023-12-07T03:21:43;97331.06;;;3.78;100.00
6514;BME280;3290;47.716;9.070;2023-12-07T03:24:09;97319.09;;;3.77;100.00
6514;BME280;3290;47.716;9.070;2023-12-07T03:26:35;97318.78;;;3.80;100.00
6514;BME280;3290;47.716;9.070;2023-12-07T03:29:00;97315.22;;;3.89;100.00
6514;BME280;3290;47.716;9.070;2023-12-07T03:31:26;97314.66;;;4.09;100.00
6514;BME280;3290;47.716;9.070;2023-12-07T03:33:53;97321.00;;;4.06;100.00
6514;BME280;3290;47.716;9.070;2023-12-07T03:36:18;97322.94;;;4.20;100.00
6514;BME280;3290;47.716;9.070;2023-12-07T03:38:43;97319.28;;;4.37;100.00
6514;BME280;3290;47.716;9.070;2023-12-07T03:41:09;97314.09;;;4.37;100.00
6514;BME280;3290;47.716;9.070;2023-12-07T03:43:34;97309.75;;;4.38;100.00
6514;BME280;3290;47.716;9.070;2023-12-07T03:46:03;97304.50;;;4.53;100.00
6514;BME280;3290;47.716;9.070;2023-12-07T03:48:29;97316.97;;;4.58;100.00
6514;BME280;3290;47.716;9.070;2023-12-07T03:50:54;97309.44;;;4.33;100.00
6514;BME280;3290;47.716;9.070;2023-12-07T03:53:20;97313.47;;;4.43;100.00
6514;BME280;3290;47.716;9.070;2023-12-07T03:55:45;97321.88;;;4.45;100.00
6514;BME280;3290;47.716;9.070;2023-12-07T03:58:10;97315.91;;;4.37;100.00
6514;BME280;3290;47.716;9.070;2023-12-07T04:00:36;97316.88;;;4.36;100.00
6514;BME280;3290;47.716;9.070;2023-12-07T04:03:01;97320.09;;;4.45;100.00
6514;BME280;3290;47.716;9.070;2023-12-07T04:05:26;97320.81;;;4.16;100.00
6514;BME280;3290;47.716;9.070;2023-12-07T04:07:52;97318.22;;;4.16;100.00
6514;BME280;3290;47.716;9.070;2023-12-07T04:10:17;97316.78;;;4.05;100.00
6514;BME280;3290;47.716;9.070;2023-12-07T04:12:43;97319.41;;;3.90;100.00
6514;BME280;3290;47.716;9.070;2023-12-07T04:15:08;97316.97;;;3.88;100.00
6514;BME280;3290;47.716;9.070;2023-12-07T04:17:34;97320.50;;;4.11;100.00
6514;BME280;3290;47.716;9.070;2023-12-07T04:19:59;97325.84;;;4.09;100.00
6514;BME280;3290;47.716;9.070;2023-12-07T04:22:24;97336.41;;;4.00;100.00
6514;BME280;3290;47.716;9.070;2023-12-07T04:24:50;97326.31;;;4.13;100.00
6514;BME280;3290;47.716;9.070;2023-12-07T04:27:15;97339.00;;;4.08;100.00
6514;BME280;3290;47.716;9.070;2023-12-07T04:29:41;97337.69;;;3.96;100.00
6514;BME280;3290;47.716;9.070;2023-12-07T04:32:07;97335.09;;;3.88;100.00
6514;BME280;3290;47.716;9.070;2023-12-07T04:34:32;97325.06;;;3.93;100.00
6514;BME280;3290;47.716;9.070;2023-12-07T04:36:58;97330.41;;;3.92;100.00
6514;BME280;3290;47.716;9.070;2023-12-07T04:39:23;97335.59;;;3.84;100.00
6514;BME280;3290;47.716;9.070;2023-12-07T04:41:48;97333.16;;;3.98;100.00
6514;BME280;3290;47.716;9.070;2023-12-07T04:44:14;97330.91;;;4.03;100.00
6514;BME280;3290;47.716;9.070;2023-12-07T04:46:40;97335.44;;;3.93;100.00
6514;BME280;3290;47.716;9.070;2023-12-07T04:49:06;97333.16;;;3.74;100.00
6514;BME280;3290;47.716;9.070;2023-12-07T04:51:31;97336.72;;;3.97;100.00
6514;BME280;3290;47.716;9.070;2023-12-07T04:53:56;97338.66;;;3.95;100.00
6514;BME280;3290;47.716;9.070;2023-12-07T04:56:22;97336.59;;;3.75;100.00
6514;BME280;3290;47.716;9.070;2023-12-07T04:58:47;97332.19;;;3.91;100.00
6514;BME280;3290;47.716;9.070;2023-12-07T05:01:12;97331.56;;;3.89;100.00
6514;BME280;3290;47.716;9.070;2023-12-07T05:03:38;97335.28;;;3.63;100.00
6514;BME280;3290;47.716;9.070;2023-12-07T05:06:03;97332.19;;;3.67;100.00
6514;BME280;3290;47.716;9.070;2023-12-07T05:08:29;97326.88;;;3.77;100.00
6514;BME280;3290;47.716;9.070;2023-12-07T05:10:54;97325.06;;;3.77;100.00
6514;BME280;3290;47.716;9.070;2023-12-07T05:13:19;97332.53;;;3.64;100.00
6514;BME280;3290;47.716;9.070;2023-12-07T05:15:45;97329.63;;;3.83;100.00
6514;BME280;3290;47.716;9.070;2023-12-07T05:18:12;97328.66;;;3.76;100.00
6514;BME280;3290;47.716;9.070;2023-12-07T05:20:37;97330.91;;;3.87;100.00
6514;BME280;3290;47.716;9.070;2023-12-07T05:23:04;97328.16;;;3.89;100.00
6514;BME280;3290;47.716;9.070;2023-12-07T05:25:30;97331.38;;;3.83;100.00
6514;BME280;3290;47.716;9.070;2023-12-07T05:27:55;97333.50;;;3.87;100.00
6514;BME280;3290;47.716;9.070;2023-12-07T05:30:20;97336.72;;;3.97;100.00
6514;BME280;3290;47.716;9.070;2023-12-07T05:32:46;97327.66;;;3.93;100.00
6514;BME280;3290;47.716;9.070;2023-12-07T05:35:11;97330.59;;;3.82;100.00
6514;BME280;3290;47.716;9.070;2023-12-07T05:37:37;97326.38;;;3.89;100.00
6514;BME280;3290;47.716;9.070;2023-12-07T05:40:02;97332.03;;;3.77;100.00
6514;BME280;3290;47.716;9.070;2023-12-07T05:42:28;97332.88;;;3.69;100.00
6514;BME280;3290;47.716;9.070;2023-12-07T05:44:53;97332.84;;;3.46;100.00
6514;BME280;3290;47.716;9.070;2023-12-07T05:47:18;97339.34;;;3.58;100.00
6514;BME280;3290;47.716;9.070;2023-12-07T05:49:44;97337.53;;;3.42;100.00
6514;BME280;3290;47.716;9.070;2023-12-07T05:52:10;97328.16;;;3.65;100.00
6514;BME280;3290;47.716;9.070;2023-12-07T05:54:35;97330.91;;;3.48;100.00
6514;BME280;3290;47.716;9.070;2023-12-07T05:57:01;97328.31;;;3.48;100.00
6514;BME280;3290;47.716;9.070;2023-12-07T05:59:27;97339.50;;;3.64;100.00
6514;BME280;3290;47.716;9.070;2023-12-07T06:01:52;97335.47;;;3.69;100.00
6514;BME280;3290;47.716;9.070;2023-12-07T06:04:18;97337.06;;;3.70;100.00
6514;BME280;3290;47.716;9.070;2023-12-07T06:06:45;97333.66;;;3.62;100.00
6514;BME280;3290;47.716;9.070;2023-12-07T06:09:10;97342.25;;;3.62;100.00
6514;BME280;3290;47.716;9.070;2023-12-07T06:11:35;97323.28;;;3.46;100.00
6514;BME280;3290;47.716;9.070;2023-12-07T06:14:01;97331.88;;;3.47;100.00
6514;BME280;3290;47.716;9.070;2023-12-07T06:16:27;97332.88;;;3.54;100.00
6514;BME280;3290;47.716;9.070;2023-12-07T06:18:52;97333.34;;;3.57;100.00
6514;BME280;3290;47.716;9.070;2023-12-07T06:21:18;97325.06;;;3.46;100.00
6514;BME280;3290;47.716;9.070;2023-12-07T06:23:43;97328.44;;;3.30;100.00
6514;BME280;3290;47.716;9.070;2023-12-07T06:26:11;97319.41;;;3.18;100.00
6514;BME280;3290;47.716;9.070;2023-12-07T06:28:37;97319.72;;;3.16;100.00
6514;BME280;3290;47.716;9.070;2023-12-07T06:31:05;97320.31;;;3.02;100.00
6514;BME280;3290;47.716;9.070;2023-12-07T06:33:32;97322.91;;;3.02;100.00
6514;BME280;3290;47.716;9.070;2023-12-07T06:35:57;97323.75;;;3.10;100.00
6514;BME280;3290;47.716;9.070;2023-12-07T06:38:22;97327.59;;;3.06;100.00
6514;BME280;3290;47.716;9.070;2023-12-07T06:40:48;97329.06;;;3.09;100.00
6514;BME280;3290;47.716;9.070;2023-12-07T06:43:13;97332.16;;;3.12;100.00
6514;BME280;3290;47.716;9.070;2023-12-07T06:45:39;97338.34;;;3.43;100.00
6514;BME280;3290;47.716;9.070;2023-12-07T06:48:05;97336.09;;;3.40;100.00
6514;BME280;3290;47.716;9.070;2023-12-07T06:50:30;97337.69;;;3.41;100.00
6514;BME280;3290;47.716;9.070;2023-12-07T06:52:56;97342.88;;;3.41;100.00
6514;BME280;3290;47.716;9.070;2023-12-07T06:55:21;97347.41;;;3.39;100.00
6514;BME280;3290;47.716;9.070;2023-12-07T06:57:47;97349.81;;;3.32;100.00
6514;BME280;3290;47.716;9.070;2023-12-07T07:00:13;97346.44;;;3.48;100.00
6514;BME280;3290;47.716;9.070;2023-12-07T07:02:39;97347.41;;;3.47;100.00
6514;BME280;3290;47.716;9.070;2023-12-07T07:05:04;97339.47;;;3.48;100.00
6514;BME280;3290;47.716;9.070;2023-12-07T07:07:31;97340.63;;;3.46;100.00
6514;BME280;3290;47.716;9.070;2023-12-07T07:09:56;97341.72;;;3.27;100.00
6514;BME280;3290;47.716;9.070;2023-12-07T07:12:22;97342.38;;;3.37;100.00
6514;BME280;3290;47.716;9.070;2023-12-07T07:14:48;97343.50;;;3.19;100.00
6514;BME280;3290;47.716;9.070;2023-12-07T07:17:14;97336.38;;;3.45;100.00
6514;BME280;3290;47.716;9.070;2023-12-07T07:19:39;97338.97;;;3.29;100.00
6514;BME280;3290;47.716;9.070;2023-12-07T07:22:04;97338.47;;;3.25;100.00
6514;BME280;3290;47.716;9.070;2023-12-07T07:24:30;97340.75;;;3.20;100.00
6514;BME280;3290;47.716;9.070;2023-12-07T07:26:55;97337.50;;;3.18;100.00
6514;BME280;3290;47.716;9.070;2023-12-07T07:29:20;97343.34;;;3.28;100.00
6514;BME280;3290;47.716;9.070;2023-12-07T07:31:46;97344.47;;;3.26;100.00
6514;BME280;3290;47.716;9.070;2023-12-07T07:34:11;97340.91;;;3.27;100.00
6514;BME280;3290;47.716;9.070;2023-12-07T07:36:37;97345.44;;;3.17;100.00
6514;BME280;3290;47.716;9.070;2023-12-07T07:39:02;97348.28;;;3.06;100.00
6514;BME280;3290;47.716;9.070;2023-12-07T07:41:29;97348.78;;;3.10;100.00
6514;BME280;3290;47.716;9.070;2023-12-07T07:43:55;97346.03;;;3.03;100.00
6514;BME280;3290;47.716;9.070;2023-12-07T07:46:20;97343.34;;;3.28;100.00
6514;BME280;3290;47.716;9.070;2023-12-07T07:48:46;97349.19;;;3.46;100.00
6514;BME280;3290;47.716;9.070;2023-12-07T07:51:11;97359.03;;;3.19;100.00
6514;BME280;3290;47.716;9.070;2023-12-07T07:53:36;97367.50;;;3.53;100.00
6514;BME280;3290;47.716;9.070;2023-12-07T07:56:02;97352.41;;;3.48;100.00
6514;BME280;3290;47.716;9.070;2023-12-07T07:58:27;97345.00;;;3.45;100.00
6514;BME280;3290;47.716;9.070;2023-12-07T08:00:52;97329.75;;;4.05;100.00
6514;BME280;3290;47.716;9.070;2023-12-07T08:03:18;97329.88;;;4.28;100.00
6514;BME280;3290;47.716;9.070;2023-12-07T08:05:43;97326.44;;;5.41;100.00
6514;BME280;3290;47.716;9.070;2023-12-07T08:08:09;97315.81;;;6.95;100.00
6514;BME280;3290;47.716;9.070;2023-12-07T08:10:35;97313.09;;;7.03;96.49
6514;BME280;3290;47.716;9.070;2023-12-07T08:13:00;97317.47;;;5.88;96.48
6514;BME280;3290;47.716;9.070;2023-12-07T08:15:25;97317.53;;;5.80;96.19
6514;BME280;3290;47.716;9.070;2023-12-07T08:17:51;97302.19;;;6.36;95.82
6514;BME280;3290;47.716;9.070;2023-12-07T08:20:17;97300.75;;;6.77;94.04
6514;BME280;3290;47.716;9.070;2023-12-07T08:22:43;97304.75;;;6.44;93.16
6514;BME280;3290;47.716;9.070;2023-12-07T08:25:10;97300.56;;;5.25;97.29
6514;BME280;3290;47.716;9.070;2023-12-07T08:27:37;97302.75;;;4.84;98.74
6514;BME280;3290;47.716;9.070;2023-12-07T08:30:04;97312.25;;;4.61;100.00
6514;BME280;3290;47.716;9.070;2023-12-07T08:32:30;97311.00;;;4.49;100.00
6514;BME280;3290;47.716;9.070;2023-12-07T08:34:55;97299.75;;;4.95;100.00
6514;BME280;3290;47.716;9.070;2023-12-07T08:37:20;97303.00;;;4.97;100.00
6514;BME280;3290;47.716;9.070;2023-12-07T08:39:46;97299.75;;;4.95;100.00
6514;BME280;3290;47.716;9.070;2023-12-07T08:42:11;97303.25;;;5.10;100.00
6514;BME280;3290;47.716;9.070;2023-12-07T08:44:37;97294.97;;;5.36;100.00
6514;BME280;3290;47.716;9.070;2023-12-07T08:47:03;97293.88;;;5.90;99.16
6514;BME280;3290;47.716;9.070;2023-12-07T08:49:29;97292.53;;;5.57;100.00
6514;BME280;3290;47.716;9.070;2023-12-07T08:51:54;97287.00;;;5.97;98.30
6514;BME280;3290;47.716;9.070;2023-12-07T08:54:21;97283.06;;;5.42;100.00
6514;BME280;3290;47.716;9.070;2023-12-07T08:56:46;97290.72;;;5.35;100.00
6514;BME280;3290;47.716;9.070;2023-12-07T08:59:11;97286.88;;;5.76;100.00
6514;BME280;3290;47.716;9.070;2023-12-07T09:01:37;97286.47;;;6.01;100.00
6514;BME280;3290;47.716;9.070;2023-12-07T09:04:02;97295.31;;;5.78;100.00
6514;BME280;3290;47.716;9.070;2023-12-07T09:06:28;97288.38;;;6.50;98.65
6514;BME280;3290;47.716;9.070;2023-12-07T09:08:54;97284.78;;;6.22;100.00
6514;BME280;3290;47.716;9.070;2023-12-07T09:11:20;97299.94;;;6.19;99.01
6514;BME280;3290;47.716;9.070;2023-12-07T09:13:45;97306.72;;;5.69;99.85
6514;BME280;3290;47.716;9.070;2023-12-07T09:16:11;97309.97;;;5.71;100.00
6514;BME280;3290;47.716;9.070;2023-12-07T09:18:36;97321.13;;;5.79;100.00
6514;BME280;3290;47.716;9.070;2023-12-07T09:21:02;97330.41;;;5.74;100.00
6514;BME280;3290;47.716;9.070;2023-12-07T09:23:28;97343.69;;;5.79;100.00
6514;BME280;3290;47.716;9.070;2023-12-07T09:25:53;97330.28;;;5.90;100.00
6514;BME280;3290;47.716;9.070;2023-12-07T09:28:19;97326.38;;;5.94;100.00
6514;BME280;3290;47.716;9.070;2023-12-07T09:30:45;97321.06;;;5.87;99.15
6514;BME280;3290;47.716;9.070;2023-12-07T09:33:10;97314.97;;;5.95;98.42
6514;BME280;3290;47.716;9.070;2023-12-07T09:35:35;97315.84;;;5.87;98.48
6514;BME280;3290;47.716;9.070;2023-12-07T09:38:01;97300.91;;;6.03;98.74
6514;BME280;3290;47.716;9.070;2023-12-07T09:40:26;97303.91;;;5.78;100.00
6514;BME280;3290;47.716;9.070;2023-12-07T09:42:53;97302.13;;;5.79;100.00
6514;BME280;3290;47.716;9.070;2023-12-07T09:45:19;97296.09;;;6.00;100.00
6514;BME280;3290;47.716;9.070;2023-12-07T09:47:50;97283.34;;;6.48;97.56
6514;BME280;3290;47.716;9.070;2023-12-07T09:50:26;97270.69;;;6.45;95.83
6514;BME280;3290;47.716;9.070;2023-12-07T09:52:54;97264.88;;;6.29;94.24
6514;BME280;3290;47.716;9.070;2023-12-07T09:55:22;97256.59;;;7.45;90.82
6514;BME280;3290;47.716;9.070;2023-12-07T09:57:48;97248.66;;;8.62;84.26
6514;BME280;3290;47.716;9.070;2023-12-07T10:00:14;97237.19;;;10.44;77.44
6514;BME280;3290;47.716;9.070;2023-12-07T10:02:41;97250.34;;;9.73;75.14
6514;BME280;3290;47.716;9.070;2023-12-07T10:05:12;97246.69;;;10.32;73.77
6514;BME280;3290;47.716;9.070;2023-12-07T10:07:47;97251.75;;;9.89;75.53
6514;BME280;3290;47.716;9.070;2023-12-07T10:10:13;97248.19;;;8.98;78.31
6514;BME280;3290;47.716;9.070;2023-12-07T10:12:59;97248.22;;;7.70;82.87
6514;BME280;3290;47.716;9.070;2023-12-07T10:15:25;97254.75;;;7.18;88.01
6514;BME280;3290;47.716;9.070;2023-12-07T10:20:19;97253.03;;;6.90;90.11
6514;BME280;3290;47.716;9.070;2023-12-07T10:22:49;97235.91;;;6.81;88.87
6514;BME280;3290;47.716;9.070;2023-12-07T10:25:14;97241.59;;;6.71;89.77
6514;BME280;3290;47.716;9.070;2023-12-07T10:27:41;97243.81;;;6.88;90.26
6514;BME280;3290;47.716;9.070;2023-12-07T10:30:09;97245.91;;;6.78;90.73
6514;BME280;3290;47.716;9.070;2023-12-07T10:32:39;97240.81;;;6.56;91.03
6514;BME280;3290;47.716;9.070;2023-12-07T10:35:08;97237.78;;;6.87;90.05
6514;BME280;3290;47.716;9.070;2023-12-07T10:37:34;97228.03;;;6.75;90.09
6514;BME280;3290;47.716;9.070;2023-12-07T10:40:00;97217.56;;;6.69;90.55
6514;BME280;3290;47.716;9.070;2023-12-07T10:42:25;97217.06;;;6.79;90.42
6514;BME280;3290;47.716;9.070;2023-12-07T10:44:57;97213.63;;;6.93;90.47
6514;BME280;3290;47.716;9.070;2023-12-07T10:47:28;97213.75;;;7.06;89.47
6514;BME280;3290;47.716;9.070;2023-12-07T10:49:57;97207.97;;;7.31;88.90
6514;BME280;3290;47.716;9.070;2023-12-07T10:52:27;97203.63;;;7.38;87.68
6514;BME280;3290;47.716;9.070;2023-12-07T10:55:03;97201.16;;;7.10;87.39
6514;BME280;3290;47.716;9.070;2023-12-07T10:57:33;97193.03;;;7.19;86.40
6514;BME280;3290;47.716;9.070;2023-12-07T11:00:00;97194.91;;;7.04;87.81
6514;BME280;3290;47.716;9.070;2023-12-07T11:02:26;97188.63;;;7.19;88.06
6514;BME280;3290;47.716;9.070;2023-12-07T11:04:56;97185.47;;;7.24;88.63
6514;BME280;3290;47.716;9.070;2023-12-07T11:07:24;97180.50;;;7.08;87.08
6514;BME280;3290;47.716;9.070;2023-12-07T11:10:07;97182.63;;;6.98;85.72
6514;BME280;3290;47.716;9.070;2023-12-07T11:12:49;97182.50;;;7.06;86.28
6514;BME280;3290;47.716;9.070;2023-12-07T11:15:17;97177.34;;;7.13;85.13
6514;BME280;3290;47.716;9.070;2023-12-07T11:18:03;97175.72;;;7.32;84.89
6514;BME280;3290;47.716;9.070;2023-12-07T11:20:40;97175.72;;;7.12;84.58
6514;BME280;3290;47.716;9.070;2023-12-07T11:23:18;97170.81;;;7.44;84.01
6514;BME280;3290;47.716;9.070;2023-12-07T11:25:47;97177.66;;;7.24;83.93
6514;BME280;3290;47.716;9.070;2023-12-07T11:28:16;97175.16;;;7.37;84.25
6514;BME280;3290;47.716;9.070;2023-12-07T11:30:43;97168.34;;;6.94;85.71
6514;BME280;3290;47.716;9.070;2023-12-07T11:33:09;97168.59;;;7.20;85.51
6514;BME280;3290;47.716;9.070;2023-12-07T11:38:27;97160.16;;;6.97;84.76
6514;BME280;3290;47.716;9.070;2023-12-07T11:40:54;97152.72;;;7.15;83.33
6514;BME280;3290;47.716;9.070;2023-12-07T11:45:58;97150.03;;;7.09;85.50
6514;BME280;3290;47.716;9.070;2023-12-07T11:48:24;97146.78;;;7.21;85.62
6514;BME280;3290;47.716;9.070;2023-12-07T11:51:00;97141.19;;;7.03;86.00
6514;BME280;3290;47.716;9.070;2023-12-07T11:53:31;97134.97;;;7.25;84.59
6514;BME280;3290;47.716;9.070;2023-12-07T11:55:58;97130.59;;;7.05;84.61
6514;BME280;3290;47.716;9.070;2023-12-07T11:58:25;97125.41;;;7.32;85.25
6514;BME280;3290;47.716;9.070;2023-12-07T12:00:52;97121.88;;;7.18;84.66
6514;BME280;3290;47.716;9.070;2023-12-07T12:03:19;97111.16;;;7.28;85.13
6514;BME280;3290;47.716;9.070;2023-12-07T12:05:45;97101.38;;;7.36;84.34
6514;BME280;3290;47.716;9.070;2023-12-07T12:08:11;97099.19;;;7.73;80.94
6514;BME280;3290;47.716;9.070;2023-12-07T12:10:38;97096.34;;;7.35;83.13
6514;BME280;3290;47.716;9.070;2023-12-07T12:13:04;97088.44;;;7.83;81.33
6514;BME280;3290;47.716;9.070;2023-12-07T12:15:29;97080.38;;;7.78;79.14
6514;BME280;3290;47.716;9.070;2023-12-07T12:17:58;97072.50;;;7.71;80.94
6514;BME280;3290;47.716;9.070;2023-12-07T12:20:24;97072.53;;;8.11;80.99
6514;BME280;3290;47.716;9.070;2023-12-07T12:22:51;97066.47;;;8.96;76.07
6514;BME280;3290;47.716;9.070;2023-12-07T12:25:39;97064.25;;;9.44;71.46
6514;BME280;3290;47.716;9.070;2023-12-07T12:28:05;97062.81;;;9.48;71.90
6514;BME280;3290;47.716;9.070;2023-12-07T12:30:32;97058.72;;;9.78;71.60
6514;BME280;3290;47.716;9.070;2023-12-07T12:32:58;97048.06;;;9.73;70.87
6514;BME280;3290;47.716;9.070;2023-12-07T12:35:25;97040.94;;;10.05;69.22
6514;BME280;3290;47.716;9.070;2023-12-07T12:37:50;97034.78;;;10.68;69.36
6514;BME280;3290;47.716;9.070;2023-12-07T12:40:17;97028.69;;;10.67;67.71
6514;BME280;3290;47.716;9.070;2023-12-07T12:42:47;97032.03;;;10.19;67.80
6514;BME280;3290;47.716;9.070;2023-12-07T12:45:17;97016.63;;;11.15;66.17
6514;BME280;3290;47.716;9.070;2023-12-07T12:47:44;97020.03;;;11.81;63.35
6514;BME280;3290;47.716;9.070;2023-12-07T12:50:11;97015.84;;;10.66;64.72
6514;BME280;3290;47.716;9.070;2023-12-07T12:52:37;97008.91;;;10.47;66.11
6514;BME280;3290;47.716;9.070;2023-12-07T12:55:13;97014.25;;;10.28;65.73
6514;BME280;3290;47.716;9.070;2023-12-07T12:57:38;97006.59;;;11.12;62.96
6514;BME280;3290;47.716;9.070;2023-12-07T13:00:05;97006.78;;;10.62;64.78
6514;BME280;3290;47.716;9.070;2023-12-07T13:02:33;97001.88;;;10.10;64.70
6514;BME280;3290;47.716;9.070;2023-12-07T13:04:58;97004.22;;;10.55;63.53
6514;BME280;3290;47.716;9.070;2023-12-07T13:07:23;96996.38;;;11.63;60.61
6514;BME280;3290;47.716;9.070;2023-12-07T13:09:50;97000.75;;;13.04;56.05
6514;BME280;3290;47.716;9.070;2023-12-07T13:12:15;96991.81;;;13.27;55.98
6514;BME280;3290;47.716;9.070;2023-12-07T13:14:41;96998.38;;;12.73;55.92
6514;BME280;3290;47.716;9.070;2023-12-07T13:17:06;97009.56;;;12.39;58.01
6514;BME280;3290;47.716;9.070;2023-12-07T13:19:35;97010.00;;;12.66;56.30
6514;BME280;3290;47.716;9.070;2023-12-07T13:22:01;97006.44;;;13.69;53.93
6514;BME280;3290;47.716;9.070;2023-12-07T13:24:28;97004.03;;;13.56;54.32
6514;BME280;3290;47.716;9.070;2023-12-07T13:26:53;97013.81;;;11.94;58.38
6514;BME280;3290;47.716;9.070;2023-12-07T13:29:21;97009.00;;;11.91;60.52